createdAt,value
2018-04-12T00:00:50.908Z,4.87
2018-04-12T00:03:17.471Z,4.40
2018-04-12T00:05:43.875Z,5.17
2018-04-12T00:08:10.297Z,5.00
2018-04-12T00:10:36.730Z,5.13
2018-04-12T00:13:03.090Z,5.33
2018-04-12T00:15:29.524Z,5.40
2018-04-12T00:17:55.942Z,4.50
2018-04-12T00:20:22.350Z,5.73
2018-04-12T00:22:48.762Z,6.23
2018-04-12T00:25:15.174Z,5.47
2018-04-12T00:27:41.579Z,4.77
2018-04-12T00:30:07.948Z,4.73
2018-04-12T00:32:34.475Z,4.97
2018-04-12T00:35:00.811Z,5.60
2018-04-12T00:37:27.149Z,5.20
2018-04-12T00:39:53.544Z,5.50
2018-04-12T00:42:19.980Z,5.47
2018-04-12T00:44:46.363Z,4.30
2018-04-12T00:47:12.792Z,5.13
2018-04-12T00:49:39.179Z,5.70
2018-04-12T00:52:06.661Z,4.93
2018-04-12T00:54:33.096Z,5.00
2018-04-12T00:56:59.445Z,5.20
2018-04-12T00:59:25.850Z,4.83
2018-04-12T01:01:52.275Z,6.33
2018-04-12T01:04:18.589Z,4.93
2018-04-12T01:06:44.973Z,5.63
2018-04-12T01:09:11.363Z,4.80
2018-04-12T01:11:37.738Z,5.17
2018-04-12T01:14:04.219Z,6.03
2018-04-12T01:16:30.630Z,5.10
2018-04-12T01:18:57.010Z,5.07
2018-04-12T01:21:23.410Z,5.77
2018-04-12T01:23:49.809Z,5.53
2018-04-12T01:26:16.226Z,5.03
2018-04-12T01:28:42.576Z,5.87
2018-04-12T01:31:09.025Z,4.93
2018-04-12T01:33:35.426Z,5.80
2018-04-12T01:36:01.782Z,5.50
2018-04-12T01:38:28.147Z,5.20
2018-04-12T01:40:54.522Z,5.00
2018-04-12T01:43:20.921Z,6.03
2018-04-12T01:45:47.296Z,5.70
2018-04-12T01:48:13.648Z,5.40
2018-04-12T01:50:40.133Z,5.10
2018-04-12T01:53:08.530Z,5.30
2018-04-12T01:55:34.923Z,5.83
2018-04-12T01:58:01.405Z,5.70
2018-04-12T02:00:27.894Z,5.63
2018-04-12T02:02:54.336Z,5.57
2018-04-12T02:05:20.745Z,5.60
2018-04-12T02:07:47.234Z,5.27
2018-04-12T02:10:13.730Z,5.80
2018-04-12T02:12:46.112Z,5.20
2018-04-12T02:15:12.555Z,5.27
2018-04-12T02:17:38.908Z,5.33
2018-04-12T02:20:05.332Z,4.93
2018-04-12T02:22:31.821Z,5.27
2018-04-12T02:24:58.165Z,5.70
2018-04-12T02:27:24.551Z,5.40
2018-04-12T02:29:50.965Z,5.60
2018-04-12T02:32:18.508Z,5.60
2018-04-12T02:34:44.865Z,5.67
2018-04-12T02:37:11.240Z,6.30
2018-04-12T02:39:37.545Z,5.63
2018-04-12T02:42:04.921Z,5.50
2018-04-12T02:44:31.316Z,5.33
2018-04-12T02:46:57.677Z,5.80
2018-04-12T02:49:23.994Z,5.87
2018-04-12T02:51:50.420Z,5.63
2018-04-12T02:54:16.804Z,5.20
2018-04-12T02:56:43.151Z,4.80
2018-04-12T02:59:09.510Z,5.53
2018-04-12T03:01:35.917Z,5.10
2018-04-12T03:04:02.431Z,5.33
2018-04-12T03:06:28.871Z,5.93
2018-04-12T03:08:55.306Z,6.13
2018-04-12T03:11:21.691Z,5.33
2018-04-12T03:13:48.114Z,5.30
2018-04-12T03:16:14.520Z,5.33
2018-04-12T03:18:40.872Z,5.53
2018-04-12T03:21:07.673Z,5.63
2018-04-12T03:23:34.214Z,5.33
2018-04-12T03:26:00.601Z,6.10
2018-04-12T03:28:26.946Z,5.97
2018-04-12T03:30:53.318Z,6.43
2018-04-12T03:33:21.693Z,6.57
2018-04-12T03:35:48.162Z,6.53
2018-04-12T03:38:14.555Z,6.83
2018-04-12T03:40:40.955Z,5.40
2018-04-12T03:43:07.581Z,6.00
2018-04-12T03:45:33.958Z,6.80
2018-04-12T03:48:00.444Z,6.10
2018-04-12T03:50:26.917Z,5.97
2018-04-12T03:52:53.364Z,5.53
2018-04-12T03:55:19.680Z,6.03
2018-04-12T03:57:46.040Z,6.07
2018-04-12T04:00:12.741Z,5.20
2018-04-12T04:02:39.170Z,5.60
2018-04-12T04:05:05.592Z,5.63
2018-04-12T04:07:31.992Z,6.17
2018-04-12T04:09:58.351Z,5.60
2018-04-12T04:12:28.384Z,6.70
2018-04-12T04:18:07.578Z,5.67
2018-04-12T04:20:46.369Z,5.70
2018-04-12T04:23:12.789Z,5.13
2018-04-12T04:25:39.221Z,5.03
2018-04-12T04:28:05.586Z,5.60
2018-04-12T04:30:31.994Z,5.27
2018-04-12T04:32:58.379Z,5.10
2018-04-12T04:35:24.727Z,4.73
2018-04-12T04:37:51.101Z,5.03
2018-04-12T04:40:17.502Z,5.17
2018-04-12T04:42:45.086Z,4.77
2018-04-12T04:45:11.563Z,5.00
2018-04-12T04:47:38.012Z,4.80
2018-04-12T04:50:04.511Z,5.97
2018-04-12T04:52:31.055Z,9.50
2018-04-12T04:54:57.491Z,6.23
2018-04-12T04:57:23.940Z,7.50
2018-04-12T04:59:50.363Z,6.67
2018-04-12T05:02:16.809Z,7.77
2018-04-12T05:04:43.242Z,6.47
2018-04-12T05:07:09.679Z,6.20
2018-04-12T05:09:36.032Z,7.37
2018-04-12T05:12:02.423Z,6.27
2018-04-12T05:14:28.977Z,7.87
2018-04-12T05:16:55.411Z,6.53
2018-04-12T05:19:21.815Z,7.70
2018-04-12T05:21:48.251Z,7.17
2018-04-12T05:24:14.786Z,7.47
2018-04-12T05:26:41.236Z,6.47
2018-04-12T05:29:07.659Z,7.33
2018-04-12T05:31:34.091Z,7.60
2018-04-12T05:34:00.615Z,6.77
2018-04-12T05:36:27.066Z,6.60
2018-04-12T05:38:53.507Z,7.93
2018-04-12T05:41:19.917Z,6.40
2018-04-12T05:43:46.530Z,6.63
2018-04-12T05:46:12.978Z,7.50
2018-04-12T05:48:39.383Z,6.73
2018-04-12T05:51:05.947Z,6.50
2018-04-12T05:53:32.471Z,6.87
2018-04-12T05:55:59.012Z,6.90
2018-04-12T05:58:25.474Z,6.60
2018-04-12T06:00:51.858Z,6.77
2018-04-12T06:03:18.312Z,6.83
2018-04-12T06:05:44.800Z,6.47
2018-04-12T06:08:11.145Z,6.87
2018-04-12T06:10:37.477Z,6.87
2018-04-12T06:13:04.133Z,7.37
2018-04-12T06:15:30.602Z,7.73
2018-04-12T06:17:57.038Z,7.20
2018-04-12T06:20:23.476Z,6.83
2018-04-12T06:22:49.826Z,7.10
2018-04-12T06:25:16.297Z,7.13
2018-04-12T06:27:42.690Z,6.93
2018-04-12T06:30:09.082Z,5.77
2018-04-12T06:32:35.554Z,7.13
2018-04-12T06:35:03.167Z,6.27
2018-04-12T06:37:30.910Z,6.53
2018-04-12T06:39:59.027Z,7.27
2018-04-12T06:42:26.489Z,6.40
2018-04-12T06:44:54.008Z,6.73
2018-04-12T06:47:22.010Z,6.77
2018-04-12T06:49:49.071Z,6.63
2018-04-12T06:52:15.624Z,6.90
2018-04-12T06:54:42.159Z,6.97
2018-04-12T06:57:08.597Z,5.50
2018-04-12T06:59:35.031Z,6.03
2018-04-12T07:02:01.413Z,5.77
2018-04-12T07:04:28.039Z,5.77
2018-04-12T07:06:55.464Z,5.87
2018-04-12T07:09:21.959Z,5.40
2018-04-12T07:11:48.390Z,5.87
2018-04-12T07:14:14.875Z,5.77
2018-04-12T07:16:41.382Z,5.63
2018-04-12T07:19:07.813Z,5.33
2018-04-12T07:21:34.170Z,6.93
2018-04-12T07:24:00.827Z,5.50
2018-04-12T07:26:27.390Z,6.60
2018-04-12T07:28:53.946Z,5.50
2018-04-12T07:31:20.353Z,5.97
2018-04-12T07:33:46.825Z,6.57
2018-04-12T07:36:13.253Z,6.00
2018-04-12T07:38:39.684Z,5.90
2018-04-12T07:41:06.611Z,5.57
2018-04-12T07:43:33.396Z,5.40
2018-04-12T07:46:00.537Z,5.57
2018-04-12T07:48:27.152Z,6.20
2018-04-12T07:50:53.512Z,6.03
2018-04-12T07:53:19.961Z,6.10
2018-04-12T07:55:46.388Z,5.63
2018-04-12T07:58:12.944Z,5.40
2018-04-12T08:00:39.466Z,6.20
2018-04-12T08:03:06.971Z,5.90
2018-04-12T08:05:33.355Z,6.30
2018-04-12T08:07:59.710Z,6.37
2018-04-12T08:10:26.185Z,5.97
2018-04-12T08:12:52.581Z,5.90
2018-04-12T08:15:18.975Z,5.67
2018-04-12T08:17:45.409Z,6.13
2018-04-12T08:20:11.948Z,6.17
2018-04-12T08:22:38.467Z,5.80
2018-04-12T08:25:04.877Z,5.10
2018-04-12T08:27:31.289Z,6.00
2018-04-12T08:29:57.720Z,6.20
2018-04-12T08:32:24.154Z,6.30
2018-04-12T08:34:50.609Z,5.97
2018-04-12T08:37:17.059Z,6.63
2018-04-12T08:39:43.529Z,5.50
2018-04-12T08:42:09.891Z,5.47
2018-04-12T08:44:36.320Z,6.00
2018-04-12T08:47:02.711Z,5.87
2018-04-12T08:49:29.088Z,6.27
2018-04-12T08:51:55.481Z,6.20
2018-04-12T08:54:22.036Z,5.73
2018-04-12T08:56:48.448Z,6.00
2018-04-12T08:59:14.805Z,5.60
2018-04-12T09:01:41.326Z,5.63
2018-04-12T09:04:07.818Z,5.70
2018-04-12T09:06:34.218Z,6.53
2018-04-12T09:09:00.645Z,6.03
2018-04-12T09:11:27.199Z,5.03
2018-04-12T09:13:53.735Z,6.23
2018-04-12T09:16:20.156Z,4.50
2018-04-12T09:18:46.535Z,5.20
2018-04-12T09:21:13.052Z,5.53
2018-04-12T09:23:39.585Z,5.97
2018-04-12T09:26:06.015Z,5.20
2018-04-12T09:28:32.445Z,5.80
2018-04-12T09:30:58.844Z,5.50
2018-04-12T09:33:25.350Z,6.20
2018-04-12T09:35:51.921Z,5.57
2018-04-12T09:38:18.476Z,5.60
2018-04-12T09:40:44.849Z,5.53
2018-04-12T09:43:11.404Z,5.20
2018-04-12T09:45:37.829Z,5.07
2018-04-12T09:48:04.306Z,5.80
2018-04-12T09:50:30.761Z,5.07
2018-04-12T09:52:57.152Z,4.93
2018-04-12T09:55:23.525Z,4.50
2018-04-12T09:57:50.043Z,5.00
2018-04-12T10:00:22.383Z,4.87
2018-04-12T10:02:54.885Z,4.83
2018-04-12T10:05:27.273Z,4.80
2018-04-12T10:07:53.766Z,4.37
2018-04-12T10:10:20.196Z,3.83
2018-04-12T10:12:46.683Z,4.03
2018-04-12T10:15:13.232Z,4.63
2018-04-12T10:17:39.719Z,4.63
2018-04-12T10:20:06.249Z,4.67
2018-04-12T10:22:32.777Z,4.03
2018-04-12T10:25:00.327Z,4.10
2018-04-12T10:27:26.772Z,4.67
2018-04-12T10:29:53.410Z,4.63
2018-04-12T10:32:20.027Z,4.37
2018-04-12T10:34:46.562Z,4.67
2018-04-12T10:37:13.039Z,5.07
2018-04-12T10:39:39.573Z,4.87
2018-04-12T10:42:06.070Z,4.27
2018-04-12T10:44:32.571Z,4.60
2018-04-12T10:46:58.959Z,4.33
2018-04-12T10:49:25.365Z,4.50
2018-04-12T10:51:51.796Z,4.57
2018-04-12T10:54:18.247Z,5.00
2018-04-12T10:56:44.672Z,4.60
2018-04-12T10:59:11.188Z,4.47
2018-04-12T11:01:37.685Z,4.87
2018-04-12T11:04:04.208Z,4.23
2018-04-12T11:06:30.711Z,4.13
2018-04-12T11:08:57.213Z,3.87
2018-04-12T11:11:23.598Z,4.70
2018-04-12T11:13:50.100Z,3.70
2018-04-12T11:16:16.784Z,3.93
2018-04-12T11:18:43.373Z,4.53
2018-04-12T11:21:09.907Z,4.83
2018-04-12T11:23:36.355Z,4.23
2018-04-12T11:26:02.901Z,4.67
2018-04-12T11:28:29.373Z,4.20
2018-04-12T11:30:55.838Z,4.33
2018-04-12T11:33:22.305Z,4.13
2018-04-12T11:35:48.839Z,4.77
2018-04-12T11:38:15.669Z,4.23
2018-04-12T11:40:42.170Z,4.10
2018-04-12T11:43:08.845Z,4.97
2018-04-12T11:45:35.280Z,3.77
2018-04-12T11:48:01.692Z,4.63
2018-04-12T11:50:28.128Z,4.20
2018-04-12T11:52:54.637Z,4.67
2018-04-12T11:55:21.067Z,4.17
2018-04-12T11:57:47.521Z,3.50
2018-04-12T12:00:13.932Z,4.67
2018-04-12T12:02:40.326Z,4.80
2018-04-12T12:05:06.885Z,4.63
2018-04-12T12:07:33.242Z,4.07
2018-04-12T12:09:59.613Z,3.63
2018-04-12T12:12:26.207Z,4.30
2018-04-12T12:14:52.629Z,4.17
2018-04-12T12:17:19.058Z,3.90
2018-04-12T12:19:45.541Z,4.70
2018-04-12T12:22:11.951Z,4.80
2018-04-12T12:24:38.423Z,4.37
2018-04-12T12:27:04.840Z,4.83
2018-04-12T12:29:31.202Z,4.50
2018-04-12T12:31:57.628Z,4.27
2018-04-12T12:34:24.170Z,4.63
2018-04-12T12:36:50.642Z,4.50
2018-04-12T12:39:17.040Z,4.27
2018-04-12T12:41:43.439Z,4.57
2018-04-12T12:44:09.897Z,4.60
2018-04-12T12:46:36.302Z,4.10
2018-04-12T12:49:02.739Z,3.80
2018-04-12T12:51:29.208Z,4.40
2018-04-12T12:53:55.669Z,4.40
2018-04-12T12:56:22.076Z,4.90
2018-04-12T12:58:48.687Z,3.80
2018-04-12T13:01:15.064Z,4.23
2018-04-12T13:03:41.542Z,3.33
2018-04-12T13:06:07.972Z,3.77
2018-04-12T13:08:34.421Z,3.47
2018-04-12T13:11:00.868Z,3.77
2018-04-12T13:13:27.367Z,3.63
2018-04-12T13:15:53.812Z,4.30
2018-04-12T13:18:20.383Z,4.40
2018-04-12T13:20:46.743Z,4.60
2018-04-12T13:23:13.665Z,3.97
2018-04-12T13:25:40.131Z,3.63
2018-04-12T13:28:06.570Z,3.80
2018-04-12T13:30:32.906Z,4.70
2018-04-12T13:32:59.379Z,4.13
2018-04-12T13:35:25.837Z,3.70
2018-04-12T13:37:52.229Z,4.20
2018-04-12T13:40:18.692Z,4.37
2018-04-12T13:42:45.155Z,4.50
2018-04-12T13:45:11.721Z,4.63
2018-04-12T13:47:38.144Z,4.27
2018-04-12T13:50:04.541Z,4.30
2018-04-12T13:52:30.978Z,3.70
2018-04-12T13:54:57.439Z,4.37
2018-04-12T13:57:23.796Z,3.93
2018-04-12T13:59:50.210Z,4.53
2018-04-12T14:02:16.966Z,3.57
2018-04-12T14:04:43.490Z,3.90
2018-04-12T14:07:09.805Z,3.90
2018-04-12T14:09:36.206Z,3.90
2018-04-12T14:12:02.684Z,3.83
2018-04-12T14:14:29.192Z,3.57
2018-04-12T14:16:55.532Z,4.17
2018-04-12T14:19:21.929Z,4.40
2018-04-12T14:21:48.265Z,5.23
2018-04-12T14:24:14.702Z,4.03
2018-04-12T14:26:41.061Z,4.10
2018-04-12T14:29:07.517Z,4.17
2018-04-12T14:31:34.025Z,3.87
2018-04-12T14:34:00.575Z,4.00
2018-04-12T14:36:27.082Z,4.53
2018-04-12T14:38:53.494Z,3.60
2018-04-12T14:41:20.047Z,3.63
2018-04-12T14:43:46.429Z,3.40
2018-04-12T14:46:12.829Z,3.70
2018-04-12T14:48:39.293Z,3.47
2018-04-12T14:51:05.769Z,3.37
2018-04-12T14:53:32.250Z,3.67
2018-04-12T14:55:58.843Z,3.73
2018-04-12T14:58:25.207Z,3.37
2018-04-12T15:00:51.605Z,4.30
2018-04-12T15:03:18.072Z,4.10
2018-04-12T15:05:44.497Z,3.87
2018-04-12T15:08:11.051Z,3.77
2018-04-12T15:10:37.591Z,4.20
2018-04-12T15:13:04.098Z,3.83
2018-04-12T15:15:30.510Z,4.00
2018-04-12T15:17:57.034Z,4.53
2018-04-12T15:20:23.639Z,4.00
2018-04-12T15:22:50.111Z,3.53
2018-04-12T15:25:16.617Z,4.87
2018-04-12T15:27:43.529Z,3.83
2018-04-12T15:30:10.067Z,4.40
2018-04-12T15:32:36.475Z,3.90
2018-04-12T15:35:02.905Z,3.87
2018-04-12T15:37:29.267Z,4.27
2018-04-12T15:39:55.705Z,4.10
2018-04-12T15:42:22.481Z,2.97
2018-04-12T15:44:49.092Z,3.80
2018-04-12T15:47:15.639Z,4.57
2018-04-12T15:49:42.071Z,3.73
2018-04-12T15:52:08.479Z,4.27
2018-04-12T15:54:35.069Z,3.70
2018-04-12T15:57:01.538Z,4.63
2018-04-12T15:59:27.953Z,3.80
2018-04-12T16:01:54.932Z,4.40
2018-04-12T16:04:21.508Z,3.97
2018-04-12T16:06:48.124Z,4.30
2018-04-12T16:09:14.710Z,4.57
2018-04-12T16:11:41.169Z,4.33
2018-04-12T16:14:07.610Z,4.37
2018-04-12T16:16:34.047Z,4.17
2018-04-12T16:19:00.447Z,3.60
2018-04-12T16:21:26.905Z,4.10
2018-04-12T16:23:53.377Z,4.10
2018-04-12T16:26:19.849Z,4.00
2018-04-12T16:28:46.251Z,3.93
2018-04-12T16:31:12.793Z,4.63
2018-04-12T16:33:39.241Z,4.23
2018-04-12T16:36:05.869Z,4.30
2018-04-12T16:38:32.449Z,4.50
2018-04-12T16:40:59.976Z,4.30
2018-04-12T16:43:26.450Z,3.90
2018-04-12T16:45:52.955Z,4.20
2018-04-12T16:48:19.431Z,4.80
2018-04-12T16:50:46.701Z,4.37
2018-04-12T16:53:14.689Z,3.90
2018-04-12T16:55:41.545Z,4.73
2018-04-12T16:58:08.710Z,4.30
2018-04-12T17:00:36.784Z,5.00
2018-04-12T17:03:04.465Z,4.17
2018-04-12T17:05:32.201Z,4.80
2018-04-12T17:08:00.507Z,4.33
2018-04-12T17:10:27.367Z,4.07
2018-04-12T17:12:53.986Z,4.23
2018-04-12T17:15:20.651Z,4.40
2018-04-12T17:17:47.448Z,4.60
2018-04-12T17:20:14.234Z,5.50
2018-04-12T17:22:41.967Z,5.67
2018-04-12T17:25:08.789Z,5.27
2018-04-12T17:27:35.300Z,4.37
2018-04-12T17:30:01.843Z,4.53
2018-04-12T17:32:28.195Z,4.27
2018-04-12T17:34:54.714Z,4.30
2018-04-12T17:37:21.297Z,4.23
2018-04-12T17:39:47.767Z,3.87
2018-04-12T17:42:14.517Z,4.60
2018-04-12T17:44:41.132Z,4.73
2018-04-12T17:47:07.628Z,3.77
2018-04-12T17:49:34.100Z,4.50
2018-04-12T17:52:00.580Z,4.27
2018-04-12T17:54:27.558Z,4.70
2018-04-12T17:56:54.196Z,4.73
2018-04-12T17:59:20.760Z,4.93
2018-04-12T18:01:48.136Z,4.43
2018-04-12T18:04:14.726Z,4.23
2018-04-12T18:06:41.266Z,4.87
2018-04-12T18:09:08.535Z,4.77
2018-04-12T18:11:35.167Z,5.57
2018-04-12T18:14:01.831Z,4.33
2018-04-12T18:16:28.645Z,4.13
2018-04-12T18:18:55.143Z,4.03
2018-04-12T18:21:21.699Z,4.57
2018-04-12T18:23:49.439Z,4.20
2018-04-12T18:26:16.003Z,4.93
2018-04-12T18:28:42.496Z,4.30
2018-04-12T18:31:09.025Z,4.07
2018-04-12T18:33:35.547Z,5.47
2018-04-12T18:36:02.111Z,4.87
2018-04-12T18:38:28.567Z,4.87
2018-04-12T18:40:55.328Z,4.40
2018-04-12T18:43:21.926Z,4.87
2018-04-12T18:45:48.676Z,4.80
2018-04-12T18:48:15.313Z,4.80
2018-04-12T18:50:42.413Z,4.43
2018-04-12T18:53:09.063Z,5.23
2018-04-12T18:55:36.291Z,5.57
2018-04-12T18:58:03.015Z,4.87
2018-04-12T19:00:29.374Z,5.07
2018-04-12T19:02:56.132Z,5.60
2018-04-12T19:05:22.700Z,4.90
2018-04-12T19:07:49.277Z,6.07
2018-04-12T19:10:15.868Z,5.87
2018-04-12T19:12:42.259Z,6.00
2018-04-12T19:15:08.945Z,5.10
2018-04-12T19:17:35.349Z,5.87
2018-04-12T19:20:02.209Z,5.83
2018-04-12T19:22:29.155Z,6.83
2018-04-12T19:24:56.145Z,5.23
2018-04-12T19:27:22.931Z,6.37
2018-04-12T19:29:49.828Z,6.13
2018-04-12T19:32:16.660Z,6.53
2018-04-12T19:34:43.495Z,6.23
2018-04-12T19:37:10.433Z,6.27
2018-04-12T19:39:37.378Z,5.40
2018-04-12T19:42:04.120Z,5.87
2018-04-12T19:44:32.277Z,6.37
2018-04-12T19:46:59.483Z,6.10
2018-04-12T19:49:26.821Z,6.23
2018-04-12T19:51:54.382Z,5.93
2018-04-12T19:54:22.147Z,6.23
2018-04-12T19:56:50.483Z,6.10
2018-04-12T19:59:18.524Z,6.93
2018-04-12T20:01:46.667Z,6.20
2018-04-12T20:04:13.605Z,7.73
2018-04-12T20:06:42.117Z,6.97
2018-04-12T20:09:08.926Z,7.13
2018-04-12T20:11:35.885Z,6.70
2018-04-12T20:14:02.802Z,6.53
2018-04-12T20:16:29.783Z,6.17
2018-04-12T20:18:56.606Z,6.07
2018-04-12T20:21:23.628Z,6.67
2018-04-12T20:23:51.467Z,5.87
2018-04-12T20:26:18.551Z,5.83
2018-04-12T20:28:45.452Z,6.57
2018-04-12T20:31:12.360Z,6.37
2018-04-12T20:33:39.506Z,7.10
2018-04-12T20:36:06.387Z,6.30
2018-04-12T20:38:33.205Z,6.70
2018-04-12T20:41:00.007Z,6.73
2018-04-12T20:43:26.722Z,6.23
2018-04-12T20:45:53.776Z,5.87
2018-04-12T20:48:20.543Z,6.70
2018-04-12T20:50:47.420Z,6.57
2018-04-12T20:53:14.532Z,6.33
2018-04-12T20:55:41.338Z,6.70
2018-04-12T20:58:08.056Z,6.00
2018-04-12T21:00:34.689Z,6.43
2018-04-12T21:03:01.462Z,7.23
2018-04-12T21:05:28.348Z,7.50
2018-04-12T21:07:55.076Z,7.77
2018-04-12T21:10:21.702Z,6.83
2018-04-12T21:12:48.799Z,6.67
2018-04-12T21:15:16.653Z,6.00
2018-04-12T21:17:43.447Z,6.20
2018-04-12T21:20:10.147Z,5.37
2018-04-12T21:22:36.800Z,5.83
2018-04-12T21:25:03.477Z,6.30
2018-04-12T21:27:30.193Z,4.87
2018-04-12T21:29:56.800Z,5.87
2018-04-12T21:32:23.297Z,5.60
2018-04-12T21:34:49.858Z,6.10
2018-04-12T21:37:16.300Z,5.70
2018-04-12T21:39:42.741Z,7.63
2018-04-12T21:42:09.101Z,5.23
2018-04-12T21:44:35.535Z,5.57
2018-04-12T21:47:01.917Z,6.67
2018-04-12T21:49:28.314Z,6.03
2018-04-12T21:51:54.726Z,6.27
2018-04-12T21:54:21.256Z,5.50
2018-04-12T21:56:47.639Z,6.20
2018-04-12T21:59:14.014Z,6.53
2018-04-12T22:01:40.423Z,6.60
2018-04-12T22:04:06.884Z,6.53
2018-04-12T22:06:33.390Z,5.40
2018-04-12T22:08:59.811Z,5.73
2018-04-12T22:11:26.222Z,6.47
2018-04-12T22:13:52.720Z,6.03
2018-04-12T22:16:19.327Z,5.60
2018-04-12T22:18:45.828Z,7.20
2018-04-12T22:21:12.334Z,7.20
2018-04-12T22:23:39.080Z,6.27
2018-04-12T22:26:05.749Z,6.67
2018-04-12T22:28:32.252Z,6.73
2018-04-12T22:30:58.704Z,6.40
2018-04-12T22:33:25.214Z,6.20
2018-04-12T22:35:51.818Z,6.23
2018-04-12T22:38:18.247Z,6.80
2018-04-12T22:40:44.774Z,6.07
2018-04-12T22:43:11.287Z,5.90
2018-04-12T22:45:37.786Z,6.93
2018-04-12T22:48:04.278Z,7.17
2018-04-12T22:50:30.721Z,9.17
2018-04-12T22:52:57.223Z,7.93
2018-04-12T22:55:23.791Z,8.73
2018-04-12T22:57:51.066Z,7.60
2018-04-12T23:00:17.576Z,7.63
2018-04-12T23:02:44.059Z,8.30
2018-04-12T23:05:10.588Z,6.00
2018-04-12T23:07:37.054Z,6.37
2018-04-12T23:10:03.513Z,6.40
2018-04-12T23:12:30.026Z,6.27
2018-04-12T23:14:57.564Z,6.27
2018-04-12T23:17:23.999Z,6.17
2018-04-12T23:19:50.426Z,6.33
2018-04-12T23:22:16.955Z,5.60
2018-04-12T23:24:43.546Z,5.67
2018-04-12T23:27:09.998Z,6.83
2018-04-12T23:29:36.411Z,6.00
2018-04-12T23:32:02.873Z,6.03
2018-04-12T23:34:29.314Z,6.10
2018-04-12T23:36:55.821Z,5.87
2018-04-12T23:39:22.318Z,6.00
2018-04-12T23:41:48.872Z,7.60
2018-04-12T23:44:15.319Z,6.57
2018-04-12T23:46:41.828Z,6.23
2018-04-12T23:49:08.238Z,6.63
2018-04-12T23:51:34.642Z,6.63
2018-04-12T23:54:01.187Z,6.70
2018-04-12T23:56:27.653Z,6.40
2018-04-12T23:58:54.107Z,6.30
